Time;durP1;ratioP1;P1;durP2;ratioP2;P2;SDS_P1;SDS_P2;PMS_P1;PMS_P2;Temp;Humidity;BMP_temperature;BMP_pressure;BME280_temperature;BME280_humidity;BME280_pressure;Samples;Min_cycle;Max_cycle;Signal;HPM_P1;HPM_P2
2020/12/12 00:00:51;;;;;;;14.10;10.60;;;6.70;92.30;;;;;;5036530;28;21003;-74
2020/12/12 00:03:17;;;;;;;16.17;11.23;;;6.70;92.30;;;;;;5037495;28;20517;-74
2020/12/12 00:05:44;;;;;;;13.57;11.03;;;6.70;92.30;;;;;;5036867;28;20463;-74
2020/12/12 00:08:10;;;;;;;13.83;10.50;;;6.70;92.30;;;;;;5036486;28;20462;-74
2020/12/12 00:10:36;;;;;;;14.70;12.30;;;6.70;92.30;;;;;;5036110;28;20478;-73
2020/12/12 00:13:02;;;;;;;14.40;10.90;;;6.70;92.30;;;;;;5035994;28;20443;-73
2020/12/12 00:15:29;;;;;;;13.17;11.10;;;6.80;92.40;;;;;;5035500;28;20442;-73
2020/12/12 00:17:55;;;;;;;15.57;11.80;;;6.70;92.40;;;;;;5035824;28;20550;-73
2020/12/12 00:20:21;;;;;;;13.90;11.93;;;6.70;92.40;;;;;;5035314;28;20853;-73
2020/12/12 00:22:48;;;;;;;12.70;11.37;;;6.70;92.40;;;;;;5035796;28;20442;-73
2020/12/12 00:25:14;;;;;;;16.23;12.90;;;6.70;92.40;;;;;;5035536;28;20803;-73
2020/12/12 00:27:41;;;;;;;17.10;12.30;;;6.70;92.30;;;;;;5035723;28;20463;-73
2020/12/12 00:30:07;;;;;;;13.90;11.40;;;6.80;92.40;;;;;;5035624;28;20454;-73
2020/12/12 00:32:33;;;;;;;11.33;9.63;;;6.70;92.30;;;;;;5035830;28;20439;-73
2020/12/12 00:34:59;;;;;;;14.17;11.10;;;6.70;92.30;;;;;;5035508;28;20960;-73
2020/12/12 00:37:26;;;;;;;13.10;10.93;;;6.80;92.30;;;;;;5035607;28;20442;-73
2020/12/12 00:39:53;;;;;;;12.50;10.77;;;6.70;92.20;;;;;;5035104;28;20442;-73
2020/12/12 00:42:19;;;;;;;12.40;10.40;;;6.70;92.20;;;;;;5035364;28;20439;-73
2020/12/12 00:44:45;;;;;;;12.97;10.77;;;6.70;92.20;;;;;;5035382;28;20438;-73
2020/12/12 00:47:11;;;;;;;14.07;10.53;;;6.70;92.20;;;;;;5035037;28;20787;-73
2020/12/12 00:49:38;;;;;;;9.90;8.90;;;6.70;92.20;;;;;;5035339;28;20439;-73
2020/12/12 00:52:04;;;;;;;12.10;9.73;;;6.70;92.20;;;;;;5035471;28;20522;-73
2020/12/12 00:54:30;;;;;;;12.97;10.13;;;6.70;92.20;;;;;;5035328;28;20442;-73
2020/12/12 00:56:57;;;;;;;12.83;9.73;;;6.70;92.20;;;;;;5035327;28;20453;-73
2020/12/12 00:59:23;;;;;;;11.60;10.40;;;6.70;92.20;;;;;;5034916;28;20474;-73
2020/12/12 01:01:49;;;;;;;11.23;9.53;;;6.70;92.20;;;;;;5035126;28;20482;-73
2020/12/12 01:04:16;;;;;;;10.10;9.10;;;6.70;92.20;;;;;;5035342;28;20447;-73
2020/12/12 01:06:42;;;;;;;12.00;9.50;;;6.70;92.30;;;;;;5035105;28;20561;-73
2020/12/12 01:09:08;;;;;;;10.47;9.03;;;6.70;92.30;;;;;;5034826;28;20467;-73
2020/12/12 01:11:34;;;;;;;11.77;9.77;;;6.70;92.30;;;;;;5034847;28;20435;-73
2020/12/12 01:14:01;;;;;;;11.70;9.77;;;6.80;92.40;;;;;;5034681;28;20442;-73
2020/12/12 01:16:27;;;;;;;9.70;8.70;;;6.70;92.40;;;;;;5034828;28;20464;-73
2020/12/12 01:18:54;;;;;;;13.77;10.77;;;6.80;92.40;;;;;;5035285;28;20513;-73
2020/12/12 01:21:21;;;;;;;14.00;9.83;;;6.80;92.40;;;;;;5034476;28;20889;-73
2020/12/12 01:23:47;;;;;;;13.10;10.30;;;6.80;92.40;;;;;;5034944;28;20449;-73
2020/12/12 01:26:13;;;;;;;10.53;9.23;;;6.80;92.40;;;;;;5034928;28;20445;-73
2020/12/12 01:28:40;;;;;;;10.93;9.23;;;6.80;92.40;;;;;;5034663;28;20512;-73
2020/12/12 01:31:11;;;;;;;10.20;8.67;;;6.80;92.40;;;;;;5034539;28;20873;-73
2020/12/12 01:33:37;;;;;;;9.37;8.07;;;6.80;92.30;;;;;;5034677;28;20438;-73
2020/12/12 01:36:05;;;;;;;11.60;9.10;;;6.80;92.30;;;;;;5034446;28;20451;-73
2020/12/12 01:38:31;;;;;;;12.33;9.87;;;6.80;92.20;;;;;;5033362;28;20462;-73
2020/12/12 01:40:57;;;;;;;11.77;9.70;;;6.90;92.30;;;;;;5033985;28;20478;-73
2020/12/12 01:43:23;;;;;;;9.40;8.50;;;6.80;92.30;;;;;;5034605;28;20447;-73
2020/12/12 01:45:50;;;;;;;11.87;9.73;;;6.80;92.30;;;;;;5034142;28;20453;-73
2020/12/12 01:48:17;;;;;;;12.37;8.60;;;6.90;92.40;;;;;;5033941;28;20984;-73
2020/12/12 01:50:44;;;;;;;9.90;8.60;;;6.80;92.40;;;;;;5034471;28;20442;-73
2020/12/12 01:53:11;;;;;;;9.93;8.80;;;6.80;92.40;;;;;;5034997;28;20486;-73
2020/12/12 01:55:37;;;;;;;9.07;8.10;;;6.90;92.60;;;;;;5034127;28;20449;-73
2020/12/12 01:58:04;;;;;;;10.73;8.07;;;6.90;92.60;;;;;;5033929;28;20471;-73
2020/12/12 02:00:30;;;;;;;9.97;8.57;;;6.90;92.60;;;;;;5034157;28;20466;-73
2020/12/12 02:02:57;;;;;;;8.43;7.53;;;6.90;92.60;;;;;;5034077;28;20446;-73
2020/12/12 02:05:38;;;;;;;10.30;8.33;;;6.90;92.60;;;;;;5034037;28;20444;-73
2020/12/12 02:08:08;;;;;;;8.90;7.63;;;6.90;92.60;;;;;;5033591;28;20513;-73
2020/12/12 02:10:35;;;;;;;9.00;7.73;;;6.90;92.70;;;;;;5034191;28;20434;-73
2020/12/12 02:13:03;;;;;;;9.10;8.20;;;6.90;92.70;;;;;;5033980;28;20451;-73
2020/12/12 02:15:30;;;;;;;8.93;8.03;;;6.90;92.60;;;;;;5033544;28;20446;-73
2020/12/12 02:17:56;;;;;;;7.83;7.13;;;6.90;92.60;;;;;;5033485;28;20539;-73
2020/12/12 02:20:24;;;;;;;9.90;7.60;;;6.90;92.60;;;;;;5033899;28;20485;-73
2020/12/12 02:22:51;;;;;;;10.50;8.03;;;7.00;92.60;;;;;;5033606;28;20447;-73
2020/12/12 02:25:17;;;;;;;9.30;7.93;;;7.00;92.60;;;;;;5033668;28;20814;-73
2020/12/12 02:27:43;;;;;;;9.03;8.10;;;7.00;92.60;;;;;;5033830;28;20472;-73
2020/12/12 02:30:10;;;;;;;7.27;6.57;;;7.00;92.60;;;;;;5033793;28;20469;-73
2020/12/12 02:32:36;;;;;;;8.10;7.30;;;7.00;92.60;;;;;;5033903;28;20439;-73
2020/12/12 02:35:04;;;;;;;7.97;7.17;;;7.00;92.60;;;;;;5033643;28;20430;-73
2020/12/12 02:37:30;;;;;;;9.83;8.30;;;7.00;92.60;;;;;;5034305;28;20479;-73
2020/12/12 02:39:57;;;;;;;7.90;7.13;;;7.00;92.50;;;;;;5033459;28;20545;-73
2020/12/12 02:42:24;;;;;;;9.20;7.90;;;7.10;92.60;;;;;;5033603;28;20438;-73
2020/12/12 02:44:52;;;;;;;8.77;7.10;;;7.10;92.60;;;;;;5033576;28;20522;-73
2020/12/12 02:47:18;;;;;;;9.07;7.77;;;7.10;92.60;;;;;;5033365;28;20496;-73
2020/12/12 02:49:45;;;;;;;8.30;7.50;;;7.10;92.60;;;;;;5036856;28;20446;-73
2020/12/12 02:52:12;;;;;;;8.50;7.70;;;7.10;92.70;;;;;;5037561;28;20450;-73
2020/12/12 02:54:38;;;;;;;8.90;7.13;;;7.10;92.70;;;;;;5038041;28;20439;-73
2020/12/12 02:57:05;;;;;;;8.63;7.83;;;7.10;92.70;;;;;;5037455;28;20454;-73
2020/12/12 02:59:31;;;;;;;8.10;7.10;;;7.10;92.70;;;;;;5037214;28;20462;-73
2020/12/12 03:01:57;;;;;;;7.97;7.17;;;7.10;92.70;;;;;;5037317;28;20509;-73
2020/12/12 03:04:23;;;;;;;8.93;7.70;;;7.10;92.70;;;;;;5037282;28;20442;-73
2020/12/12 03:06:50;;;;;;;7.73;6.93;;;7.10;92.70;;;;;;5036837;28;20815;-73
2020/12/12 03:09:16;;;;;;;7.93;7.13;;;7.10;92.70;;;;;;5036911;28;20477;-73
2020/12/12 03:11:42;;;;;;;9.20;8.20;;;7.10;92.60;;;;;;5036780;28;20933;-73
2020/12/12 03:14:09;;;;;;;7.73;6.93;;;7.10;92.60;;;;;;5036868;28;20442;-73
2020/12/12 03:16:35;;;;;;;8.73;7.17;;;7.10;92.60;;;;;;5036996;28;20447;-73
2020/12/12 03:19:01;;;;;;;10.90;8.03;;;7.10;92.60;;;;;;5036758;28;20470;-73
2020/12/12 03:21:27;;;;;;;8.50;7.60;;;7.10;92.60;;;;;;5036702;28;20466;-74
2020/12/12 03:23:54;;;;;;;8.43;6.83;;;7.10;92.60;;;;;;5036775;28;20447;-73
2020/12/12 03:26:20;;;;;;;8.13;7.07;;;7.10;92.60;;;;;;5036728;28;20453;-73
2020/12/12 03:28:46;;;;;;;8.13;7.20;;;7.10;92.60;;;;;;5036496;28;20466;-73
2020/12/12 03:31:13;;;;;;;8.57;7.43;;;7.20;92.60;;;;;;5036535;28;20441;-73
2020/12/12 03:33:39;;;;;;;10.00;8.87;;;7.20;92.50;;;;;;5036402;28;20442;-73
2020/12/12 03:36:05;;;;;;;8.10;7.10;;;7.20;92.50;;;;;;5036133;28;20512;-73
2020/12/12 03:38:32;;;;;;;8.53;7.30;;;7.20;92.50;;;;;;5036250;28;20469;-73
2020/12/12 03:40:58;;;;;;;9.10;7.60;;;7.20;92.50;;;;;;5035924;28;20485;-73
2020/12/12 03:43:25;;;;;;;8.17;7.27;;;7.20;92.50;;;;;;5036352;28;20863;-73
2020/12/12 03:45:51;;;;;;;9.20;7.00;;;7.20;92.50;;;;;;5036279;28;20446;-73
2020/12/12 03:48:18;;;;;;;8.10;7.30;;;7.20;92.50;;;;;;5035827;28;20465;-73
2020/12/12 03:50:44;;;;;;;9.70;8.20;;;7.20;92.50;;;;;;5036132;28;20811;-73
2020/12/12 03:53:11;;;;;;;10.53;8.10;;;7.20;92.50;;;;;;5035778;28;20449;-73
2020/12/12 03:55:37;;;;;;;9.60;8.40;;;7.20;92.50;;;;;;5035800;28;20933;-73
2020/12/12 03:58:03;;;;;;;9.63;8.17;;;7.20;92.60;;;;;;5035934;28;20477;-73
2020/12/12 04:00:29;;;;;;;10.10;9.00;;;7.20;92.70;;;;;;5035120;28;20481;-73
2020/12/12 04:02:55;;;;;;;10.10;9.10;;;7.20;92.70;;;;;;5035563;28;20816;-73
2020/12/12 04:05:22;;;;;;;10.10;8.60;;;7.20;92.80;;;;;;5035877;28;20477;-73
2020/12/12 04:07:49;;;;;;;8.80;7.90;;;7.20;92.80;;;;;;5035418;28;20934;-73
2020/12/12 04:10:15;;;;;;;9.00;8.07;;;7.20;92.80;;;;;;5035785;28;20450;-73
2020/12/12 04:12:41;;;;;;;12.00;7.60;;;7.20;92.80;;;;;;5035742;28;20837;-73
2020/12/12 04:15:07;;;;;;;10.73;9.63;;;7.30;92.90;;;;;;5035631;28;20439;-73
2020/12/12 04:17:33;;;;;;;11.10;8.17;;;7.30;92.90;;;;;;5035539;28;20474;-73
2020/12/12 04:20:00;;;;;;;10.50;9.40;;;7.20;92.90;;;;;;5035554;28;20439;-73
2020/12/12 04:22:27;;;;;;;11.67;8.53;;;7.30;93.00;;;;;;5035493;28;20482;-73
2020/12/12 04:24:53;;;;;;;9.90;8.90;;;7.30;93.10;;;;;;5035247;28;20935;-73
2020/12/12 04:27:19;;;;;;;12.43;8.63;;;7.20;93.10;;;;;;5035404;28;20446;-73
2020/12/12 04:29:45;;;;;;;9.40;8.40;;;7.20;93.10;;;;;;5035425;28;20442;-73
2020/12/12 04:32:11;;;;;;;9.37;8.37;;;7.20;93.10;;;;;;5035406;28;20442;-73
2020/12/12 04:34:38;;;;;;;12.87;9.00;;;7.30;93.20;;;;;;5035356;28;20438;-73
2020/12/12 04:37:04;;;;;;;11.53;9.60;;;7.20;93.20;;;;;;5034908;28;20936;-73
2020/12/12 04:39:31;;;;;;;8.80;7.80;;;7.20;93.20;;;;;;5035134;28;20512;-74
2020/12/12 04:41:58;;;;;;;11.10;9.20;;;7.20;93.20;;;;;;5035124;28;20478;-73
2020/12/12 04:44:24;;;;;;;11.73;9.43;;;7.30;93.30;;;;;;5035129;28;20442;-73
2020/12/12 04:46:51;;;;;;;10.97;9.27;;;7.30;93.30;;;;;;5035093;28;20448;-73
2020/12/12 04:49:18;;;;;;;10.97;9.83;;;7.20;93.20;;;;;;5034953;28;20467;-73
2020/12/12 04:51:46;;;;;;;10.73;8.93;;;7.30;93.30;;;;;;5035079;28;20850;-73
2020/12/12 04:54:18;;;;;;;12.73;9.03;;;7.30;93.30;;;;;;5034730;28;20936;-73
2020/12/12 04:56:46;;;;;;;9.27;8.10;;;7.30;93.30;;;;;;5034719;28;20426;-73
2020/12/12 04:59:13;;;;;;;9.93;8.80;;;7.20;93.20;;;;;;5034522;28;20995;-73
2020/12/12 05:01:40;;;;;;;10.57;9.27;;;7.30;93.30;;;;;;5034728;28;20556;-73
2020/12/12 05:04:07;;;;;;;12.70;9.40;;;7.30;93.30;;;;;;5034786;28;20447;-73
2020/12/12 05:06:34;;;;;;;12.00;9.47;;;7.30;93.30;;;;;;5034715;28;20446;-73
2020/12/12 05:09:01;;;;;;;11.33;9.10;;;7.30;93.30;;;;;;5034335;28;20467;-73
2020/12/12 05:11:27;;;;;;;11.07;8.90;;;7.30;93.30;;;;;;5034044;28;20462;-73
2020/12/12 05:13:54;;;;;;;10.03;8.93;;;7.30;93.30;;;;;;5033946;28;20950;-73
2020/12/12 05:16:20;;;;;;;11.97;9.50;;;7.30;93.20;;;;;;5034275;28;20439;-73
2020/12/12 05:18:48;;;;;;;11.40;9.33;;;7.30;93.20;;;;;;5034348;28;20466;-73
2020/12/12 05:21:15;;;;;;;11.10;9.30;;;7.30;93.30;;;;;;5034420;28;20485;-73
2020/12/12 05:23:42;;;;;;;14.27;10.47;;;7.30;93.30;;;;;;5034419;28;20450;-73
2020/12/12 05:26:12;;;;;;;11.43;10.03;;;7.30;93.30;;;;;;5034368;28;20445;-73
2020/12/12 05:28:40;;;;;;;12.73;9.17;;;7.40;93.30;;;;;;5034243;28;20502;-73
2020/12/12 05:31:07;;;;;;;9.90;8.80;;;7.30;93.20;;;;;;5034224;28;20446;-73
2020/12/12 05:33:33;;;;;;;10.77;9.67;;;7.30;93.30;;;;;;5034094;28;20442;-73
2020/12/12 05:35:59;;;;;;;12.20;9.20;;;7.30;93.20;;;;;;5033826;28;20462;-73
2020/12/12 05:38:26;;;;;;;11.90;9.90;;;7.30;93.30;;;;;;5034091;28;20470;-73
2020/12/12 05:40:55;;;;;;;11.20;9.40;;;7.30;93.30;;;;;;5034006;28;20819;-73
2020/12/12 05:43:29;;;;;;;12.30;10.10;;;7.40;93.40;;;;;;5033843;28;20446;-73
2020/12/12 05:45:55;;;;;;;12.20;10.43;;;7.40;93.40;;;;;;5033771;28;20546;-73
2020/12/12 05:48:23;;;;;;;11.60;9.87;;;7.40;93.40;;;;;;5033905;28;20466;-73
2020/12/12 05:50:49;;;;;;;12.70;11.30;;;7.40;93.40;;;;;;5033943;28;20457;-73
2020/12/12 05:53:16;;;;;;;11.63;10.07;;;7.40;93.40;;;;;;5033907;28;20442;-73
2020/12/12 05:55:45;;;;;;;12.83;10.47;;;7.40;93.50;;;;;;5033936;28;20451;-74
2020/12/12 05:58:12;;;;;;;10.50;9.40;;;7.40;93.50;;;;;;5033807;28;20459;-73
2020/12/12 06:00:39;;;;;;;15.20;10.87;;;7.40;93.40;;;;;;5033449;28;20842;-73
2020/12/12 06:03:10;;;;;;;12.30;10.60;;;7.40;93.40;;;;;;5033778;28;20438;-73
2020/12/12 06:05:46;;;;;;;14.20;11.20;;;7.50;93.50;;;;;;5033847;28;20427;-73
2020/12/12 06:08:20;;;;;;;13.77;12.30;;;7.40;93.40;;;;;;5033432;28;20552;-74
2020/12/12 06:10:53;;;;;;;15.07;12.10;;;7.40;93.40;;;;;;5033766;28;20421;-74
2020/12/12 06:13:25;;;;;;;14.13;10.47;;;7.40;93.40;;;;;;5033668;28;20430;-74
2020/12/12 06:15:53;;;;;;;13.80;10.97;;;7.40;93.40;;;;;;5033454;28;20427;-74
2020/12/12 06:18:30;;;;;;;18.57;12.57;;;7.40;93.50;;;;;;5033194;28;20969;-74
2020/12/12 06:21:03;;;;;;;15.03;12.83;;;7.40;93.50;;;;;;5033611;28;20469;-74
2020/12/12 06:23:30;;;;;;;16.30;12.97;;;7.40;93.60;;;;;;5033219;28;20419;-74
2020/12/12 06:25:57;;;;;;;13.37;11.00;;;7.40;93.60;;;;;;5033497;28;20438;-74
2020/12/12 06:28:27;;;;;;;14.07;11.83;;;7.40;93.50;;;;;;5033565;28;20473;-74
2020/12/12 06:30:56;;;;;;;15.07;11.70;;;7.40;93.50;;;;;;5033510;28;20427;-74
2020/12/12 06:33:22;;;;;;;17.07;12.43;;;7.40;93.50;;;;;;5033490;28;20842;-74
2020/12/12 06:35:50;;;;;;;14.60;11.83;;;7.40;93.50;;;;;;5033424;28;20455;-74
2020/12/12 06:38:21;;;;;;;14.10;11.50;;;7.40;93.50;;;;;;5033385;28;20505;-74
2020/12/12 06:40:49;;;;;;;13.70;11.13;;;7.50;93.50;;;;;;5033430;28;20834;-74
2020/12/12 06:43:33;;;;;;;13.10;11.43;;;7.50;93.40;;;;;;5033078;28;20817;-74
2020/12/12 06:46:02;;;;;;;12.40;11.10;;;7.50;93.40;;;;;;5033104;28;20994;-74
2020/12/12 06:48:31;;;;;;;13.77;11.67;;;7.50;93.40;;;;;;5033149;28;20466;-74
2020/12/12 06:50:58;;;;;;;15.37;11.63;;;7.50;93.30;;;;;;5032937;28;20438;-74
2020/12/12 06:53:27;;;;;;;15.53;13.17;;;7.40;93.30;;;;;;5033301;28;20814;-74
2020/12/12 06:56:11;;;;;;;18.27;12.37;;;7.50;93.40;;;;;;5033274;28;20453;-74
2020/12/12 06:58:38;;;;;;;13.13;11.13;;;7.50;93.40;;;;;;5033083;28;20489;-74
2020/12/12 07:01:35;;;;;;;14.37;12.83;;;7.50;93.50;;;;;;5033091;28;20505;-74
2020/12/12 07:04:03;;;;;;;16.07;12.33;;;7.50;93.60;;;;;;4972172;28;20770;-74
2020/12/12 07:06:31;;;;;;;16.77;12.87;;;7.40;93.70;;;;;;5019732;28;20578;-74
2020/12/12 07:09:03;;;;;;;14.00;10.70;;;7.50;93.80;;;;;;5033033;28;20454;-74
2020/12/12 07:11:31;;;;;;;14.83;11.70;;;7.50;93.70;;;;;;5033065;28;20439;-74
2020/12/12 07:13:58;;;;;;;15.87;12.10;;;7.50;93.70;;;;;;5032728;28;20947;-74
2020/12/12 07:16:25;;;;;;;12.20;10.67;;;7.50;93.70;;;;;;5033084;28;20438;-74
2020/12/12 07:18:51;;;;;;;18.17;13.67;;;7.50;93.70;;;;;;5033715;28;20468;-74
2020/12/12 07:21:18;;;;;;;15.93;12.23;;;7.50;93.70;;;;;;5033005;28;20486;-74
2020/12/12 07:23:44;;;;;;;15.80;13.13;;;7.50;93.80;;;;;;5033000;28;20488;-74
2020/12/12 07:26:11;;;;;;;15.13;12.43;;;7.50;93.90;;;;;;5032980;28;20447;-74
2020/12/12 07:28:38;;;;;;;14.17;11.63;;;7.50;93.90;;;;;;5032871;28;20556;-74
2020/12/12 07:31:04;;;;;;;15.43;12.23;;;7.50;94.00;;;;;;5033044;28;20439;-74
2020/12/12 07:33:31;;;;;;;16.80;13.13;;;7.50;94.00;;;;;;5032912;28;20443;-74
2020/12/12 07:35:57;;;;;;;15.10;11.03;;;7.60;94.30;;;;;;5034593;28;20819;-74
2020/12/12 07:38:24;;;;;;;14.80;10.93;;;7.60;94.40;;;;;;5036518;28;20462;-74
2020/12/12 07:40:51;;;;;;;15.00;11.60;;;7.60;94.40;;;;;;5036506;28;20494;-74
2020/12/12 07:43:18;;;;;;;14.73;10.67;;;7.60;94.30;;;;;;5036592;28;20441;-75
2020/12/12 07:45:55;;;;;;;14.97;12.30;;;7.60;94.30;;;;;;5037014;28;20807;-75
2020/12/12 07:48:22;;;;;;;19.37;14.70;;;7.60;94.20;;;;;;5036727;28;20466;-74
2020/12/12 07:50:48;;;;;;;17.43;14.70;;;7.60;94.10;;;;;;5036197;28;20446;-73
2020/12/12 07:53:17;;;;;;;16.00;13.43;;;7.70;94.20;;;;;;5036271;28;20422;-73
2020/12/12 07:55:53;;;;;;;17.70;12.80;;;7.70;94.20;;;;;;5036222;28;20454;-73
2020/12/12 07:58:23;;;;;;;18.27;11.30;;;7.70;94.20;;;;;;5036133;28;20458;-73
2020/12/12 08:00:56;;;;;;;12.47;10.70;;;7.70;94.10;;;;;;5035926;28;20426;-73
2020/12/12 08:03:22;;;;;;;13.97;10.70;;;7.70;94.00;;;;;;5036027;28;20450;-73
2020/12/12 08:05:48;;;;;;;15.40;11.70;;;7.70;93.90;;;;;;5035963;28;20437;-74
2020/12/12 08:08:15;;;;;;;15.07;12.77;;;7.70;93.90;;;;;;5035590;28;20835;-74
2020/12/12 08:10:41;;;;;;;15.17;11.73;;;7.70;93.80;;;;;;5035876;28;20439;-74
2020/12/12 08:13:07;;;;;;;14.13;11.63;;;7.80;93.80;;;;;;5035510;28;20456;-74
2020/12/12 08:15:38;;;;;;;12.80;11.20;;;7.80;93.70;;;;;;5035809;28;20431;-74
2020/12/12 08:18:11;;;;;;;13.30;9.97;;;7.80;93.70;;;;;;5035830;28;20493;-75
2020/12/12 08:20:38;;;;;;;13.97;11.27;;;7.80;93.60;;;;;;5035672;28;20453;-74
2020/12/12 08:23:05;;;;;;;15.07;11.07;;;7.80;93.60;;;;;;5035679;28;20442;-74
2020/12/12 08:25:32;;;;;;;15.60;12.30;;;7.90;93.60;;;;;;5035580;28;20445;-74
2020/12/12 08:27:58;;;;;;;18.77;12.90;;;7.90;93.50;;;;;;5035708;28;20469;-75
2020/12/12 08:30:25;;;;;;;15.23;12.10;;;7.90;93.50;;;;;;5035149;28;20940;-75
2020/12/12 08:32:54;;;;;;;16.37;13.13;;;7.90;93.50;;;;;;5035673;28;20489;-75
2020/12/12 08:35:23;;;;;;;16.43;12.53;;;7.90;93.50;;;;;;5035154;28;20470;-75
2020/12/12 08:37:57;;;;;;;16.73;12.50;;;7.90;93.90;;;;;;5035793;28;20470;-75
2020/12/12 08:40:25;;;;;;;17.13;12.47;;;7.90;93.60;;;;;;5036019;28;20430;-75
2020/12/12 08:43:06;;;;;;;16.10;12.90;;;7.90;93.70;;;;;;5035690;28;20476;-76
2020/12/12 08:45:33;;;;;;;17.93;14.50;;;7.90;93.70;;;;;;5035460;28;20485;-76
2020/12/12 08:48:03;;;;;;;20.83;14.57;;;7.90;93.70;;;;;;5034964;28;20466;-75
2020/12/12 08:50:43;;;;;;;18.67;13.93;;;8.00;93.80;;;;;;5035344;28;20447;-75
2020/12/12 08:53:24;;;;;;;16.43;13.30;;;8.00;93.80;;;;;;5035267;28;20434;-76
2020/12/12 08:56:01;;;;;;;18.37;13.63;;;8.00;93.80;;;;;;5034994;28;20793;-75
2020/12/12 08:58:38;;;;;;;19.90;14.50;;;8.00;93.80;;;;;;5034709;28;21006;-75
2020/12/12 09:01:17;;;;;;;17.87;13.90;;;8.00;93.70;;;;;;5034967;28;20466;-75
2020/12/12 09:03:52;;;;;;;20.87;13.30;;;8.00;93.70;;;;;;5034862;28;20438;-75
2020/12/12 09:06:18;;;;;;;17.40;13.93;;;8.10;93.80;;;;;;5034511;28;20893;-75
2020/12/12 09:08:45;;;;;;;15.77;12.90;;;8.10;93.70;;;;;;5035109;28;20488;-75
2020/12/12 09:11:12;;;;;;;16.20;13.47;;;8.10;93.70;;;;;;5034556;28;20442;-75
2020/12/12 09:13:38;;;;;;;19.43;14.37;;;8.10;93.70;;;;;;5034643;28;20441;-75
2020/12/12 09:16:04;;;;;;;17.33;13.70;;;8.10;93.60;;;;;;5034650;28;20446;-75
2020/12/12 09:18:30;;;;;;;17.47;13.07;;;8.10;93.60;;;;;;5034471;28;20470;-75
2020/12/12 09:20:57;;;;;;;22.83;18.50;;;8.20;93.60;;;;;;5034150;28;20937;-74
2020/12/12 09:23:25;;;;;;;19.67;14.57;;;8.20;93.70;;;;;;5035174;28;20434;-78
2020/12/12 09:25:51;;;;;;;23.47;16.40;;;8.20;93.70;;;;;;5034862;28;20451;-74
2020/12/12 09:28:17;;;;;;;21.37;17.00;;;8.20;93.70;;;;;;5033955;28;20987;-74
2020/12/12 09:30:43;;;;;;;18.20;15.53;;;8.20;94.10;;;;;;5034261;28;20447;-74
2020/12/12 09:33:10;;;;;;;18.67;14.47;;;8.30;93.80;;;;;;5034238;28;20446;-74
2020/12/12 09:35:36;;;;;;;20.43;15.17;;;8.30;93.90;;;;;;5034212;28;20454;-75
2020/12/12 09:38:03;;;;;;;17.40;14.70;;;8.30;93.80;;;;;;5033762;28;21000;-75
2020/12/12 09:40:29;;;;;;;19.17;14.73;;;8.30;93.80;;;;;;5034140;28;20422;-75
2020/12/12 09:42:55;;;;;;;16.60;13.60;;;8.30;93.80;;;;;;5033990;28;20489;-75
2020/12/12 09:45:22;;;;;;;17.70;13.50;;;8.40;93.90;;;;;;5034079;28;20442;-75
2020/12/12 09:47:48;;;;;;;16.67;14.93;;;8.40;93.90;;;;;;5034000;28;20474;-74
2020/12/12 09:50:15;;;;;;;19.20;13.40;;;8.40;93.90;;;;;;5033713;28;20910;-74
2020/12/12 09:52:41;;;;;;;17.13;14.67;;;8.40;94.00;;;;;;5034260;28;20422;-74
2020/12/12 09:55:08;;;;;;;17.20;13.20;;;8.50;94.00;;;;;;5034394;28;20517;-74
2020/12/12 09:57:35;;;;;;;19.77;16.13;;;8.50;94.00;;;;;;5033402;28;20540;-75
2020/12/12 10:00:01;;;;;;;19.50;13.90;;;8.50;93.90;;;;;;5033831;28;20438;-74
2020/12/12 10:02:28;;;;;;;18.40;14.90;;;8.50;94.00;;;;;;5033485;28;20478;-74
2020/12/12 10:04:54;;;;;;;18.43;14.40;;;8.60;94.00;;;;;;5033903;28;20430;-75
2020/12/12 10:07:20;;;;;;;19.80;14.07;;;8.60;94.00;;;;;;5033637;28;20435;-74
2020/12/12 10:09:47;;;;;;;15.63;13.87;;;8.60;94.00;;;;;;5033754;28;20451;-74
2020/12/12 10:12:14;;;;;;;16.63;13.30;;;8.60;94.00;;;;;;5033805;28;20443;-74
2020/12/12 10:14:40;;;;;;;16.37;14.17;;;8.60;94.00;;;;;;5033504;28;20518;-74
2020/12/12 10:17:06;;;;;;;17.93;14.53;;;8.70;94.10;;;;;;5033722;28;20457;-75
2020/12/12 10:19:33;;;;;;;16.83;14.77;;;8.80;94.10;;;;;;5033459;28;20465;-75
2020/12/12 10:21:59;;;;;;;16.00;12.60;;;8.80;94.20;;;;;;5033263;28;21007;-74
2020/12/12 10:24:26;;;;;;;17.90;13.80;;;8.80;94.20;;;;;;5033489;28;20433;-74
2020/12/12 10:26:52;;;;;;;17.60;14.07;;;8.90;94.20;;;;;;5033494;28;20504;-74
2020/12/12 10:29:20;;;;;;;17.90;13.83;;;9.00;94.20;;;;;;5033254;28;20949;-73
2020/12/12 10:31:46;;;;;;;18.17;13.47;;;9.00;94.20;;;;;;5033282;28;20470;-74
2020/12/12 10:34:13;;;;;;;17.63;14.00;;;9.00;94.20;;;;;;5033210;28;20841;-74
2020/12/12 10:36:39;;;;;;;18.30;13.93;;;9.00;94.10;;;;;;5033704;28;20512;-74
2020/12/12 10:39:05;;;;;;;16.30;13.37;;;9.10;94.10;;;;;;5033465;28;20498;-74
2020/12/12 10:41:32;;;;;;;18.23;13.47;;;9.10;94.10;;;;;;5033227;28;20482;-74
2020/12/12 10:43:58;;;;;;;21.43;15.30;;;9.20;94.20;;;;;;5033448;28;20425;-74
2020/12/12 10:46:25;;;;;;;20.30;16.10;;;9.20;94.10;;;;;;5033379;28;20435;-75
2020/12/12 10:48:51;;;;;;;19.93;15.33;;;9.30;94.10;;;;;;5033133;28;20475;-74
2020/12/12 10:51:18;;;;;;;15.23;13.63;;;9.30;94.00;;;;;;5033374;28;20434;-75
2020/12/12 10:53:44;;;;;;;17.93;15.40;;;9.40;94.10;;;;;;5033015;28;20450;-74
2020/12/12 10:56:11;;;;;;;16.03;12.80;;;9.40;94.10;;;;;;5033320;28;20496;-75
2020/12/12 10:58:37;;;;;;;15.93;13.37;;;9.50;94.10;;;;;;5033223;28;20470;-75
2020/12/12 11:01:03;;;;;;;14.83;12.50;;;9.50;93.70;;;;;;5033118;28;20446;-75
2020/12/12 11:03:30;;;;;;;16.20;12.30;;;9.50;93.60;;;;;;5033298;28;20427;-75
2020/12/12 11:05:56;;;;;;;17.33;13.27;;;9.50;93.60;;;;;;5033142;28;20435;-75
2020/12/12 11:08:22;;;;;;;15.00;11.97;;;9.50;93.50;;;;;;5033040;28;20462;-75
2020/12/12 11:10:49;;;;;;;17.37;13.70;;;9.50;93.60;;;;;;5036382;28;20426;-75
2020/12/12 11:13:15;;;;;;;15.83;12.97;;;9.60;93.60;;;;;;5037034;28;20442;-75
2020/12/12 11:15:42;;;;;;;14.00;12.50;;;9.60;93.60;;;;;;5036992;28;20445;-75
2020/12/12 11:18:09;;;;;;;14.70;11.60;;;9.70;93.70;;;;;;5036567;28;20984;-75
2020/12/12 11:20:36;;;;;;;17.23;12.83;;;9.70;93.40;;;;;;5036819;28;20489;-75
2020/12/12 11:23:02;;;;;;;15.83;12.13;;;9.70;93.30;;;;;;5036331;28;20848;-75
2020/12/12 11:25:28;;;;;;;17.10;13.60;;;9.70;93.30;;;;;;5036452;28;20446;-77
2020/12/12 11:27:55;;;;;;;21.90;15.60;;;9.70;93.30;;;;;;5036686;28;20466;-74
2020/12/12 11:30:23;;;;;;;23.90;18.00;;;9.70;92.90;;;;;;5036706;28;20438;-74
2020/12/12 11:32:49;;;;;;;19.20;14.40;;;9.70;93.10;;;;;;5036623;28;20435;-74
2020/12/12 11:35:18;;;;;;;16.23;12.63;;;9.70;93.30;;;;;;5036517;28;20458;-74
2020/12/12 11:40:30;;;;;;;15.43;12.33;;;9.70;93.50;;;;;;5036311;28;20457;-75
2020/12/12 11:43:21;;;;;;;19.20;12.63;;;9.70;93.60;;;;;;5036543;28;20470;-75
2020/12/12 11:46:08;;;;;;;18.60;12.00;;;9.80;93.60;;;;;;5036586;28;20426;-75
2020/12/12 11:48:34;;;;;;;15.43;13.73;;;9.80;93.70;;;;;;5036455;28;20476;-75
2020/12/12 11:51:01;;;;;;;15.10;12.20;;;9.90;93.80;;;;;;5036107;28;20932;-75
2020/12/12 11:53:28;;;;;;;15.60;11.80;;;9.90;93.70;;;;;;5036345;28;20438;-75
2020/12/12 11:55:54;;;;;;;15.13;13.10;;;9.90;93.60;;;;;;5036351;28;20442;-74
2020/12/12 11:58:20;;;;;;;14.60;11.80;;;10.00;93.10;;;;;;5036225;28;20466;-74
2020/12/12 12:00:46;;;;;;;14.23;11.77;;;10.00;93.10;;;;;;5036107;28;20473;-74
2020/12/12 12:03:13;;;;;;;14.50;11.73;;;10.00;93.00;;;;;;5035805;28;21010;-74
2020/12/12 12:05:42;;;;;;;17.00;13.30;;;10.00;93.00;;;;;;5036056;28;20427;-74
2020/12/12 12:08:18;;;;;;;18.53;14.27;;;10.00;93.10;;;;;;5035646;28;20553;-74
2020/12/12 12:10:55;;;;;;;19.53;16.07;;;10.00;93.10;;;;;;5036091;28;20435;-75
2020/12/12 12:13:21;;;;;;;20.50;15.37;;;10.00;93.10;;;;;;5036081;28;20480;-77
2020/12/12 12:15:47;;;;;;;18.00;14.50;;;10.00;93.10;;;;;;5035963;28;20473;-75
2020/12/12 12:18:13;;;;;;;20.10;16.13;;;10.00;93.10;;;;;;5035806;28;20467;-75
2020/12/12 12:20:39;;;;;;;26.17;18.73;;;10.00;93.10;;;;;;5034907;28;20431;-76
2020/12/12 12:23:06;;;;;;;20.27;15.80;;;10.00;93.10;;;;;;5035944;28;20490;-77
2020/12/12 12:25:32;;;;;;;20.33;17.07;;;10.00;93.20;;;;;;5035801;28;20423;-75
2020/12/12 12:27:59;;;;;;;19.83;15.93;;;10.10;93.30;;;;;;5035703;28;20542;-75
2020/12/12 12:30:25;;;;;;;21.07;15.70;;;10.10;93.40;;;;;;5036276;28;20443;-77
2020/12/12 12:32:51;;;;;;;21.20;16.50;;;10.10;93.40;;;;;;5038940;28;20442;-74
2020/12/12 12:35:18;;;;;;;19.27;15.80;;;10.20;93.40;;;;;;5037838;28;20455;-74
2020/12/12 12:37:44;;;;;;;17.57;14.80;;;10.20;93.40;;;;;;5037011;28;20999;-73
2020/12/12 12:40:11;;;;;;;17.00;14.50;;;10.20;93.50;;;;;;5036971;28;20451;-74
2020/12/12 12:42:37;;;;;;;17.40;12.87;;;10.20;93.40;;;;;;5037739;28;20498;-74
2020/12/12 12:45:04;;;;;;;17.63;14.43;;;10.20;93.40;;;;;;5040293;28;20446;-78
2020/12/12 12:47:30;;;;;;;15.70;13.20;;;10.20;93.40;;;;;;5036276;28;20431;-76